sensor_id;sensor_type;location;lat;lon;timestamp;pressure;altitude;pressure_sealevel;temperature;humidity
10958;BME280;5531;42.570;23.676;2022-08-21T00:01:11;91572.59;;;17.97;100.00
10958;BME280;5531;42.570;23.676;2022-08-21T00:03:42;91574.19;;;17.98;100.00
10958;BME280;5531;42.570;23.676;2022-08-21T00:06:11;91572.38;;;18.04;100.00
10958;BME280;5531;42.570;23.676;2022-08-21T00:08:40;91568.22;;;18.13;100.00
10958;BME280;5531;42.570;23.676;2022-08-21T00:11:10;91555.75;;;18.13;100.00
10958;BME280;5531;42.570;23.676;2022-08-21T00:13:42;91562.41;;;18.16;100.00
10958;BME280;5531;42.570;23.676;2022-08-21T00:16:11;91554.88;;;18.03;100.00
10958;BME280;5531;42.570;23.676;2022-08-21T00:18:40;91562.16;;;18.18;100.00
10958;BME280;5531;42.570;23.676;2022-08-21T00:21:11;91564.06;;;18.22;100.00
10958;BME280;5531;42.570;23.676;2022-08-21T00:23:41;91556.06;;;18.17;100.00
10958;BME280;5531;42.570;23.676;2022-08-21T00:26:10;91567.47;;;18.18;100.00
10958;BME280;5531;42.570;23.676;2022-08-21T00:28:42;91542.81;;;18.17;99.21
10958;BME280;5531;42.570;23.676;2022-08-21T00:31:11;91559.50;;;18.18;98.59
10958;BME280;5531;42.570;23.676;2022-08-21T00:33:41;91558.13;;;18.10;99.91
10958;BME280;5531;42.570;23.676;2022-08-21T00:36:10;91557.06;;;18.11;98.91
10958;BME280;5531;42.570;23.676;2022-08-21T00:38:39;91556.72;;;18.02;99.75
10958;BME280;5531;42.570;23.676;2022-08-21T00:41:09;91560.06;;;17.87;100.00
10958;BME280;5531;42.570;23.676;2022-08-21T00:43:43;91576.78;;;17.88;100.00
10958;BME280;5531;42.570;23.676;2022-08-21T00:46:12;91580.94;;;17.84;100.00
10958;BME280;5531;42.570;23.676;2022-08-21T00:48:41;91583.91;;;17.87;100.00
10958;BME280;5531;42.570;23.676;2022-08-21T00:51:14;91571.75;;;17.91;100.00
10958;BME280;5531;42.570;23.676;2022-08-21T00:53:50;91580.53;;;17.97;100.00
10958;BME280;5531;42.570;23.676;2022-08-21T00:56:21;91573.69;;;18.01;100.00
10958;BME280;5531;42.570;23.676;2022-08-21T00:58:56;91565.47;;;17.98;99.73
10958;BME280;5531;42.570;23.676;2022-08-21T01:01:26;91579.72;;;17.91;99.55
10958;BME280;5531;42.570;23.676;2022-08-21T01:03:55;91575.44;;;17.90;100.00
10958;BME280;5531;42.570;23.676;2022-08-21T01:06:24;91573.59;;;17.91;100.00
10958;BME280;5531;42.570;23.676;2022-08-21T01:08:53;91582.59;;;17.90;100.00
10958;BME280;5531;42.570;23.676;2022-08-21T01:11:22;91570.16;;;17.90;100.00
10958;BME280;5531;42.570;23.676;2022-08-21T01:13:54;91569.66;;;17.93;100.00
10958;BME280;5531;42.570;23.676;2022-08-21T01:16:23;91566.22;;;17.93;100.00
10958;BME280;5531;42.570;23.676;2022-08-21T01:18:53;91573.09;;;17.94;100.00
10958;BME280;5531;42.570;23.676;2022-08-21T01:21:26;91566.75;;;17.95;100.00
10958;BME280;5531;42.570;23.676;2022-08-21T01:23:56;91563.31;;;17.94;100.00
10958;BME280;5531;42.570;23.676;2022-08-21T01:26:27;91554.53;;;17.94;100.00
10958;BME280;5531;42.570;23.676;2022-08-21T01:29:00;91556.66;;;17.92;100.00
10958;BME280;5531;42.570;23.676;2022-08-21T01:31:31;91558.25;;;17.93;100.00
10958;BME280;5531;42.570;23.676;2022-08-21T01:34:01;91562.75;;;17.92;100.00
10958;BME280;5531;42.570;23.676;2022-08-21T01:36:33;91560.91;;;17.93;100.00
10958;BME280;5531;42.570;23.676;2022-08-21T01:39:04;91554.97;;;17.86;100.00
10958;BME280;5531;42.570;23.676;2022-08-21T01:41:35;91567.34;;;17.75;100.00
10958;BME280;5531;42.570;23.676;2022-08-21T01:44:04;91561.03;;;17.81;100.00
10958;BME280;5531;42.570;23.676;2022-08-21T01:46:33;91566.63;;;17.85;100.00
10958;BME280;5531;42.570;23.676;2022-08-21T01:49:03;91567.47;;;17.63;100.00
10958;BME280;5531;42.570;23.676;2022-08-21T01:51:34;91565.06;;;17.62;100.00
10958;BME280;5531;42.570;23.676;2022-08-21T01:54:04;91561.63;;;17.61;100.00
10958;BME280;5531;42.570;23.676;2022-08-21T01:56:36;91578.06;;;17.63;100.00
10958;BME280;5531;42.570;23.676;2022-08-21T01:59:06;91577.00;;;17.59;100.00
10958;BME280;5531;42.570;23.676;2022-08-21T02:01:35;91581.94;;;17.50;100.00
10958;BME280;5531;42.570;23.676;2022-08-21T02:04:05;91568.38;;;17.47;100.00
10958;BME280;5531;42.570;23.676;2022-08-21T02:06:38;91568.63;;;17.45;100.00
10958;BME280;5531;42.570;23.676;2022-08-21T02:09:08;91568.44;;;17.52;100.00
10958;BME280;5531;42.570;23.676;2022-08-21T02:11:38;91564.66;;;17.43;100.00
10958;BME280;5531;42.570;23.676;2022-08-21T02:14:08;91578.72;;;17.48;100.00
10958;BME280;5531;42.570;23.676;2022-08-21T02:16:38;91582.50;;;17.52;100.00
10958;BME280;5531;42.570;23.676;2022-08-21T02:19:08;91571.53;;;17.44;100.00
10958;BME280;5531;42.570;23.676;2022-08-21T02:21:40;91583.19;;;17.43;100.00
10958;BME280;5531;42.570;23.676;2022-08-21T02:24:10;91581.56;;;17.41;100.00
10958;BME280;5531;42.570;23.676;2022-08-21T02:26:39;91578.63;;;17.38;100.00
10958;BME280;5531;42.570;23.676;2022-08-21T02:29:08;91580.81;;;17.46;100.00
10958;BME280;5531;42.570;23.676;2022-08-21T02:31:37;91571.03;;;17.47;100.00
10958;BME280;5531;42.570;23.676;2022-08-21T02:34:06;91580.94;;;17.56;100.00
10958;BME280;5531;42.570;23.676;2022-08-21T02:36:35;91584.31;;;17.52;100.00
10958;BME280;5531;42.570;23.676;2022-08-21T02:39:07;91587.78;;;17.52;100.00
10958;BME280;5531;42.570;23.676;2022-08-21T02:41:36;91597.63;;;17.57;100.00
10958;BME280;5531;42.570;23.676;2022-08-21T02:44:05;91591.06;;;17.65;100.00
10958;BME280;5531;42.570;23.676;2022-08-21T02:46:34;91586.63;;;17.70;100.00
10958;BME280;5531;42.570;23.676;2022-08-21T02:49:03;91596.75;;;17.73;100.00
10958;BME280;5531;42.570;23.676;2022-08-21T02:51:32;91589.78;;;17.67;100.00
10958;BME280;5531;42.570;23.676;2022-08-21T02:54:01;91598.53;;;17.68;100.00
10958;BME280;5531;42.570;23.676;2022-08-21T02:56:33;91601.91;;;17.63;100.00
10958;BME280;5531;42.570;23.676;2022-08-21T02:59:02;91593.63;;;17.54;100.00
10958;BME280;5531;42.570;23.676;2022-08-21T03:01:31;91591.28;;;17.58;100.00
10958;BME280;5531;42.570;23.676;2022-08-21T03:04:00;91601.38;;;17.61;100.00
10958;BME280;5531;42.570;23.676;2022-08-21T03:06:29;91599.09;;;17.70;100.00
10958;BME280;5531;42.570;23.676;2022-08-21T03:08:59;91598.81;;;17.71;100.00
10958;BME280;5531;42.570;23.676;2022-08-21T03:11:28;91594.34;;;17.72;100.00
10958;BME280;5531;42.570;23.676;2022-08-21T03:14:00;91595.63;;;17.69;100.00
10958;BME280;5531;42.570;23.676;2022-08-21T03:16:31;91597.94;;;17.61;100.00
10958;BME280;5531;42.570;23.676;2022-08-21T03:19:01;91592.88;;;17.59;100.00
10958;BME280;5531;42.570;23.676;2022-08-21T03:21:30;91585.47;;;17.61;100.00
10958;BME280;5531;42.570;23.676;2022-08-21T03:23:59;91579.47;;;17.71;100.00
10958;BME280;5531;42.570;23.676;2022-08-21T03:26:28;91588.28;;;17.76;100.00
10958;BME280;5531;42.570;23.676;2022-08-21T03:29:00;91581.38;;;17.75;100.00
10958;BME280;5531;42.570;23.676;2022-08-21T03:31:29;91592.69;;;17.66;100.00
10958;BME280;5531;42.570;23.676;2022-08-21T03:33:58;91596.13;;;17.39;100.00
10958;BME280;5531;42.570;23.676;2022-08-21T03:36:27;91597.41;;;17.36;100.00
10958;BME280;5531;42.570;23.676;2022-08-21T03:38:56;91599.66;;;17.50;100.00
10958;BME280;5531;42.570;23.676;2022-08-21T03:41:25;91602.16;;;17.62;100.00
10958;BME280;5531;42.570;23.676;2022-08-21T03:43:54;91601.03;;;17.52;100.00
10958;BME280;5531;42.570;23.676;2022-08-21T03:46:26;91600.84;;;17.37;100.00
10958;BME280;5531;42.570;23.676;2022-08-21T03:48:55;91602.50;;;17.43;100.00
10958;BME280;5531;42.570;23.676;2022-08-21T03:51:24;91608.00;;;17.36;100.00
10958;BME280;5531;42.570;23.676;2022-08-21T03:53:53;91597.34;;;17.31;100.00
10958;BME280;5531;42.570;23.676;2022-08-21T03:56:22;91589.41;;;17.31;100.00
10958;BME280;5531;42.570;23.676;2022-08-21T03:58:51;91592.31;;;17.30;100.00
10958;BME280;5531;42.570;23.676;2022-08-21T04:01:21;91599.38;;;17.24;100.00
10958;BME280;5531;42.570;23.676;2022-08-21T04:03:53;91591.81;;;17.33;100.00
10958;BME280;5531;42.570;23.676;2022-08-21T04:06:22;91598.38;;;17.30;100.00
10958;BME280;5531;42.570;23.676;2022-08-21T04:08:52;91595.06;;;17.40;100.00
10958;BME280;5531;42.570;23.676;2022-08-21T04:11:21;91586.88;;;17.41;100.00
10958;BME280;5531;42.570;23.676;2022-08-21T04:13:50;91586.31;;;17.39;100.00
10958;BME280;5531;42.570;23.676;2022-08-21T04:16:19;91588.44;;;17.37;100.00
10958;BME280;5531;42.570;23.676;2022-08-21T04:18:48;91590.38;;;17.47;100.00
10958;BME280;5531;42.570;23.676;2022-08-21T04:21:20;91591.22;;;17.53;100.00
10958;BME280;5531;42.570;23.676;2022-08-21T04:23:49;91590.44;;;17.52;100.00
10958;BME280;5531;42.570;23.676;2022-08-21T04:26:18;91598.19;;;17.59;100.00
10958;BME280;5531;42.570;23.676;2022-08-21T04:28:46;91601.66;;;17.65;100.00
10958;BME280;5531;42.570;23.676;2022-08-21T04:31:16;91603.03;;;17.67;100.00
10958;BME280;5531;42.570;23.676;2022-08-21T04:33:45;91582.28;;;17.59;100.00
10958;BME280;5531;42.570;23.676;2022-08-21T04:36:14;91588.63;;;17.58;100.00
10958;BME280;5531;42.570;23.676;2022-08-21T04:38:46;91597.25;;;17.70;100.00
10958;BME280;5531;42.570;23.676;2022-08-21T04:41:15;91589.78;;;17.67;100.00
10958;BME280;5531;42.570;23.676;2022-08-21T04:43:44;91594.09;;;17.73;100.00
10958;BME280;5531;42.570;23.676;2022-08-21T04:46:13;91591.41;;;17.68;100.00
10958;BME280;5531;42.570;23.676;2022-08-21T04:48:42;91597.00;;;17.72;100.00
10958;BME280;5531;42.570;23.676;2022-08-21T04:51:14;91599.38;;;17.73;100.00
10958;BME280;5531;42.570;23.676;2022-08-21T04:53:52;91587.63;;;17.64;100.00
10958;BME280;5531;42.570;23.676;2022-08-21T04:56:25;91591.31;;;17.63;100.00
10958;BME280;5531;42.570;23.676;2022-08-21T04:58:57;91588.91;;;17.62;100.00
10958;BME280;5531;42.570;23.676;2022-08-21T05:01:30;91584.44;;;17.62;100.00
10958;BME280;5531;42.570;23.676;2022-08-21T05:04:03;91585.19;;;17.57;100.00
10958;BME280;5531;42.570;23.676;2022-08-21T05:06:35;91588.19;;;17.66;100.00
10958;BME280;5531;42.570;23.676;2022-08-21T05:09:08;91584.97;;;17.64;100.00
10958;BME280;5531;42.570;23.676;2022-08-21T05:11:38;91595.59;;;17.64;100.00
10958;BME280;5531;42.570;23.676;2022-08-21T05:14:08;91589.19;;;17.60;100.00
10958;BME280;5531;42.570;23.676;2022-08-21T05:16:37;91599.97;;;17.53;100.00
10958;BME280;5531;42.570;23.676;2022-08-21T05:19:07;91595.47;;;17.54;100.00
10958;BME280;5531;42.570;23.676;2022-08-21T05:21:39;91596.78;;;17.51;100.00
10958;BME280;5531;42.570;23.676;2022-08-21T05:24:11;91584.75;;;17.44;100.00
10958;BME280;5531;42.570;23.676;2022-08-21T05:26:41;91599.97;;;17.53;100.00
10958;BME280;5531;42.570;23.676;2022-08-21T05:29:10;91587.53;;;17.54;100.00
10958;BME280;5531;42.570;23.676;2022-08-21T05:31:39;91584.16;;;17.58;100.00
10958;BME280;5531;42.570;23.676;2022-08-21T05:34:08;91571.69;;;17.59;100.00
10958;BME280;5531;42.570;23.676;2022-08-21T05:36:37;91573.16;;;17.72;100.00
10958;BME280;5531;42.570;23.676;2022-08-21T05:39:06;91573.41;;;17.70;100.00
10958;BME280;5531;42.570;23.676;2022-08-21T05:41:38;91573.44;;;17.75;100.00
10958;BME280;5531;42.570;23.676;2022-08-21T05:44:07;91586.19;;;17.78;100.00
10958;BME280;5531;42.570;23.676;2022-08-21T05:46:37;91591.03;;;17.87;100.00
10958;BME280;5531;42.570;23.676;2022-08-21T05:49:06;91586.41;;;17.99;100.00
10958;BME280;5531;42.570;23.676;2022-08-21T05:51:35;91581.19;;;18.09;100.00
10958;BME280;5531;42.570;23.676;2022-08-21T05:54:04;91581.50;;;18.18;100.00
10958;BME280;5531;42.570;23.676;2022-08-21T05:56:33;91577.59;;;18.26;100.00
10958;BME280;5531;42.570;23.676;2022-08-21T05:59:05;91571.84;;;18.39;100.00
10958;BME280;5531;42.570;23.676;2022-08-21T06:01:34;91568.22;;;18.50;100.00
10958;BME280;5531;42.570;23.676;2022-08-21T06:04:05;91563.56;;;18.73;100.00
10958;BME280;5531;42.570;23.676;2022-08-21T06:06:34;91570.00;;;18.82;100.00
10958;BME280;5531;42.570;23.676;2022-08-21T06:09:04;91574.06;;;18.95;100.00
10958;BME280;5531;42.570;23.676;2022-08-21T06:11:33;91577.53;;;18.96;100.00
10958;BME280;5531;42.570;23.676;2022-08-21T06:14:07;91576.19;;;18.98;100.00
10958;BME280;5531;42.570;23.676;2022-08-21T06:16:37;91578.31;;;18.96;100.00
10958;BME280;5531;42.570;23.676;2022-08-21T06:19:06;91567.19;;;18.99;100.00
10958;BME280;5531;42.570;23.676;2022-08-21T06:21:35;91571.75;;;19.14;100.00
10958;BME280;5531;42.570;23.676;2022-08-21T06:24:06;91572.03;;;19.13;99.23
10958;BME280;5531;42.570;23.676;2022-08-21T06:26:35;91562.13;;;18.98;99.82
10958;BME280;5531;42.570;23.676;2022-08-21T06:29:08;91575.44;;;19.08;100.00
10958;BME280;5531;42.570;23.676;2022-08-21T06:31:42;91583.13;;;18.99;100.00
10958;BME280;5531;42.570;23.676;2022-08-21T06:34:12;91582.03;;;18.95;100.00
10958;BME280;5531;42.570;23.676;2022-08-21T06:36:41;91578.81;;;18.88;100.00
10958;BME280;5531;42.570;23.676;2022-08-21T06:39:10;91581.50;;;18.93;100.00
10958;BME280;5531;42.570;23.676;2022-08-21T06:41:40;91586.81;;;18.98;100.00
10958;BME280;5531;42.570;23.676;2022-08-21T06:44:11;91591.31;;;18.93;100.00
10958;BME280;5531;42.570;23.676;2022-08-21T06:46:41;91592.13;;;18.98;100.00
10958;BME280;5531;42.570;23.676;2022-08-21T06:49:10;91585.25;;;19.02;100.00
10958;BME280;5531;42.570;23.676;2022-08-21T06:51:39;91590.28;;;18.99;99.96
10958;BME280;5531;42.570;23.676;2022-08-21T06:54:09;91592.19;;;19.03;100.00
10958;BME280;5531;42.570;23.676;2022-08-21T06:56:41;91596.41;;;18.99;99.87
10958;BME280;5531;42.570;23.676;2022-08-21T06:59:15;91587.63;;;18.99;100.00
10958;BME280;5531;42.570;23.676;2022-08-21T07:01:45;91580.72;;;18.98;100.00
10958;BME280;5531;42.570;23.676;2022-08-21T07:04:14;91594.28;;;19.07;99.61
10958;BME280;5531;42.570;23.676;2022-08-21T07:06:44;91580.16;;;18.91;99.44
10958;BME280;5531;42.570;23.676;2022-08-21T07:09:13;91586.00;;;18.88;100.00
10958;BME280;5531;42.570;23.676;2022-08-21T07:11:46;91581.47;;;18.88;100.00
10958;BME280;5531;42.570;23.676;2022-08-21T07:14:21;91584.97;;;18.94;100.00
10958;BME280;5531;42.570;23.676;2022-08-21T07:16:50;91593.75;;;18.99;100.00
10958;BME280;5531;42.570;23.676;2022-08-21T07:19:21;91586.03;;;18.98;100.00
10958;BME280;5531;42.570;23.676;2022-08-21T07:21:54;91580.19;;;18.96;100.00
10958;BME280;5531;42.570;23.676;2022-08-21T07:24:26;91586.38;;;19.12;100.00
10958;BME280;5531;42.570;23.676;2022-08-21T07:26:55;91576.81;;;19.16;100.00
10958;BME280;5531;42.570;23.676;2022-08-21T07:29:27;91578.66;;;19.10;100.00
10958;BME280;5531;42.570;23.676;2022-08-21T07:31:56;91589.31;;;19.15;100.00
10958;BME280;5531;42.570;23.676;2022-08-21T07:34:25;91582.13;;;19.21;100.00
10958;BME280;5531;42.570;23.676;2022-08-21T07:36:54;91569.13;;;19.24;100.00
10958;BME280;5531;42.570;23.676;2022-08-21T07:39:24;91575.03;;;19.32;100.00
10958;BME280;5531;42.570;23.676;2022-08-21T07:41:53;91574.50;;;19.35;100.00
10958;BME280;5531;42.570;23.676;2022-08-21T07:44:22;91581.63;;;19.29;100.00
10958;BME280;5531;42.570;23.676;2022-08-21T07:46:54;91576.09;;;19.36;100.00
10958;BME280;5531;42.570;23.676;2022-08-21T07:49:23;91577.19;;;19.50;100.00
10958;BME280;5531;42.570;23.676;2022-08-21T07:51:52;91577.78;;;19.68;100.00
10958;BME280;5531;42.570;23.676;2022-08-21T07:54:22;91579.94;;;19.76;100.00
10958;BME280;5531;42.570;23.676;2022-08-21T07:56:51;91577.84;;;19.88;99.73
10958;BME280;5531;42.570;23.676;2022-08-21T07:59:20;91574.69;;;19.96;98.62
10958;BME280;5531;42.570;23.676;2022-08-21T08:01:49;91579.47;;;20.05;98.11
10958;BME280;5531;42.570;23.676;2022-08-21T08:04:21;91579.47;;;20.20;96.64
10958;BME280;5531;42.570;23.676;2022-08-21T08:06:50;91575.75;;;20.31;98.10
10958;BME280;5531;42.570;23.676;2022-08-21T08:09:19;91577.59;;;20.36;98.07
10958;BME280;5531;42.570;23.676;2022-08-21T08:11:48;91566.69;;;20.43;95.94
10958;BME280;5531;42.570;23.676;2022-08-21T08:14:17;91575.19;;;20.40;95.37
10958;BME280;5531;42.570;23.676;2022-08-21T08:16:47;91579.75;;;20.29;95.12
10958;BME280;5531;42.570;23.676;2022-08-21T08:19:16;91577.63;;;20.26;97.02
10958;BME280;5531;42.570;23.676;2022-08-21T08:21:48;91585.03;;;20.19;95.25
10958;BME280;5531;42.570;23.676;2022-08-21T08:24:17;91591.72;;;20.16;95.44
10958;BME280;5531;42.570;23.676;2022-08-21T08:26:46;91595.94;;;20.17;96.69
10958;BME280;5531;42.570;23.676;2022-08-21T08:29:15;91590.38;;;20.13;96.15
10958;BME280;5531;42.570;23.676;2022-08-21T08:31:44;91596.47;;;20.14;95.28
10958;BME280;5531;42.570;23.676;2022-08-21T08:34:14;91589.03;;;20.01;96.74
10958;BME280;5531;42.570;23.676;2022-08-21T08:36:43;91596.22;;;20.00;96.63
10958;BME280;5531;42.570;23.676;2022-08-21T08:39:14;91592.47;;;19.86;94.38
10958;BME280;5531;42.570;23.676;2022-08-21T08:41:45;91594.59;;;19.84;94.83
10958;BME280;5531;42.570;23.676;2022-08-21T08:44:17;91594.59;;;19.78;95.23
10958;BME280;5531;42.570;23.676;2022-08-21T08:46:47;91590.53;;;19.71;96.05
10958;BME280;5531;42.570;23.676;2022-08-21T08:49:22;91592.63;;;19.64;96.74
10958;BME280;5531;42.570;23.676;2022-08-21T08:51:53;91600.44;;;19.75;96.26
10958;BME280;5531;42.570;23.676;2022-08-21T08:54:32;91585.25;;;19.76;95.93
10958;BME280;5531;42.570;23.676;2022-08-21T08:57:09;91586.56;;;19.73;95.99
10958;BME280;5531;42.570;23.676;2022-08-21T08:59:42;91590.28;;;19.67;94.59
10958;BME280;5531;42.570;23.676;2022-08-21T09:02:13;91582.31;;;19.72;95.86
10958;BME280;5531;42.570;23.676;2022-08-21T09:04:44;91585.78;;;19.78;95.74
10958;BME280;5531;42.570;23.676;2022-08-21T09:07:22;91568.00;;;19.84;96.65
10958;BME280;5531;42.570;23.676;2022-08-21T09:10:12;91569.84;;;19.83;96.33
10958;BME280;5531;42.570;23.676;2022-08-21T09:12:52;91565.88;;;19.96;97.37
10958;BME280;5531;42.570;23.676;2022-08-21T09:15:31;91576.53;;;20.01;95.12
10958;BME280;5531;42.570;23.676;2022-08-21T09:18:23;91569.63;;;20.05;92.75
10958;BME280;5531;42.570;23.676;2022-08-21T09:21:07;91572.53;;;20.09;92.68
10958;BME280;5531;42.570;23.676;2022-08-21T09:23:46;91571.75;;;20.08;92.34
10958;BME280;5531;42.570;23.676;2022-08-21T09:26:24;91571.22;;;20.17;92.32
10958;BME280;5531;42.570;23.676;2022-08-21T09:28:56;91580.53;;;20.24;92.83
10958;BME280;5531;42.570;23.676;2022-08-21T09:31:28;91568.81;;;20.41;92.48
10958;BME280;5531;42.570;23.676;2022-08-21T09:33:59;91570.13;;;20.59;94.01
10958;BME280;5531;42.570;23.676;2022-08-21T09:36:35;91569.06;;;20.75;92.93
10958;BME280;5531;42.570;23.676;2022-08-21T09:39:06;91568.25;;;20.85;90.68
10958;BME280;5531;42.570;23.676;2022-08-21T09:41:39;91567.16;;;20.96;89.36
10958;BME280;5531;42.570;23.676;2022-08-21T09:44:09;91564.53;;;20.91;87.66
10958;BME280;5531;42.570;23.676;2022-08-21T09:46:38;91567.19;;;20.91;90.70
10958;BME280;5531;42.570;23.676;2022-08-21T09:49:07;91566.91;;;20.98;88.63
10958;BME280;5531;42.570;23.676;2022-08-21T09:51:36;91563.69;;;21.01;88.36
10958;BME280;5531;42.570;23.676;2022-08-21T09:54:15;91567.13;;;21.06;86.84
10958;BME280;5531;42.570;23.676;2022-08-21T09:56:56;91564.69;;;21.15;86.29
10958;BME280;5531;42.570;23.676;2022-08-21T09:59:38;91569.75;;;21.12;85.89
10958;BME280;5531;42.570;23.676;2022-08-21T10:02:25;91577.78;;;21.01;85.96
10958;BME280;5531;42.570;23.676;2022-08-21T10:04:56;91573.28;;;20.97;86.63
10958;BME280;5531;42.570;23.676;2022-08-21T10:07:27;91562.88;;;21.05;85.90
10958;BME280;5531;42.570;23.676;2022-08-21T10:10:03;91568.22;;;21.05;86.55
10958;BME280;5531;42.570;23.676;2022-08-21T10:12:45;91562.09;;;20.95;86.44
10958;BME280;5531;42.570;23.676;2022-08-21T10:15:22;91565.31;;;20.86;87.30
10958;BME280;5531;42.570;23.676;2022-08-21T10:18:00;91561.53;;;21.03;87.62
10958;BME280;5531;42.570;23.676;2022-08-21T10:20:39;91559.38;;;21.10;88.78
10958;BME280;5531;42.570;23.676;2022-08-21T10:23:27;91558.09;;;21.02;88.58
10958;BME280;5531;42.570;23.676;2022-08-21T10:26:02;91553.81;;;21.01;88.54
10958;BME280;5531;42.570;23.676;2022-08-21T10:28:45;91545.06;;;20.91;89.44
10958;BME280;5531;42.570;23.676;2022-08-21T10:31:21;91553.34;;;20.84;87.58
10958;BME280;5531;42.570;23.676;2022-08-21T10:34:09;91546.38;;;20.98;88.51
10958;BME280;5531;42.570;23.676;2022-08-21T10:36:49;91545.06;;;20.96;87.77
10958;BME280;5531;42.570;23.676;2022-08-21T10:39:26;91541.56;;;21.00;86.80
10958;BME280;5531;42.570;23.676;2022-08-21T10:45:07;91535.75;;;20.93;86.04
10958;BME280;5531;42.570;23.676;2022-08-21T10:47:42;91538.59;;;21.07;85.50
10958;BME280;5531;42.570;23.676;2022-08-21T10:50:19;91532.19;;;21.23;87.88
10958;BME280;5531;42.570;23.676;2022-08-21T10:53:07;91531.63;;;21.21;86.47
10958;BME280;5531;42.570;23.676;2022-08-21T10:55:44;91529.19;;;21.35;85.44
10958;BME280;5531;42.570;23.676;2022-08-21T10:58:21;91527.00;;;21.53;86.11
10958;BME280;5531;42.570;23.676;2022-08-21T11:00:58;91528.25;;;21.60;85.56
10958;BME280;5531;42.570;23.676;2022-08-21T11:03:34;91527.75;;;21.58;85.18
10958;BME280;5531;42.570;23.676;2022-08-21T11:06:18;91522.63;;;21.67;85.81
10958;BME280;5531;42.570;23.676;2022-08-21T11:08:53;91521.25;;;21.75;83.12
10958;BME280;5531;42.570;23.676;2022-08-21T11:11:29;91513.41;;;21.94;84.45
10958;BME280;5531;42.570;23.676;2022-08-21T11:14:03;91510.03;;;22.12;82.01
10958;BME280;5531;42.570;23.676;2022-08-21T11:16:37;91514.81;;;22.15;82.09
10958;BME280;5531;42.570;23.676;2022-08-21T11:19:13;91502.41;;;22.35;82.04
10958;BME280;5531;42.570;23.676;2022-08-21T11:21:50;91513.53;;;22.47;82.26
10958;BME280;5531;42.570;23.676;2022-08-21T11:24:30;91499.56;;;22.56;80.59
10958;BME280;5531;42.570;23.676;2022-08-21T11:27:04;91497.16;;;22.78;81.83
10958;BME280;5531;42.570;23.676;2022-08-21T11:29:36;91506.00;;;22.79;79.85
10958;BME280;5531;42.570;23.676;2022-08-21T11:35:17;91501.31;;;22.65;79.77
10958;BME280;5531;42.570;23.676;2022-08-21T11:37:58;91504.44;;;22.73;79.93
10958;BME280;5531;42.570;23.676;2022-08-21T11:40:48;91503.41;;;22.44;81.45
10958;BME280;5531;42.570;23.676;2022-08-21T11:43:32;91497.38;;;22.28;81.04
10958;BME280;5531;42.570;23.676;2022-08-21T11:46:16;91495.59;;;22.19;82.50
10958;BME280;5531;42.570;23.676;2022-08-21T11:49:00;91482.75;;;22.21;81.94
10958;BME280;5531;42.570;23.676;2022-08-21T11:51:35;91482.19;;;22.24;81.39
10958;BME280;5531;42.570;23.676;2022-08-21T11:54:12;91485.88;;;22.33;82.46
10958;BME280;5531;42.570;23.676;2022-08-21T11:56:47;91490.28;;;22.48;82.26
10958;BME280;5531;42.570;23.676;2022-08-21T11:59:23;91488.34;;;22.54;81.62
10958;BME280;5531;42.570;23.676;2022-08-21T12:01:55;91498.78;;;22.50;81.10
10958;BME280;5531;42.570;23.676;2022-08-21T12:04:31;91484.78;;;22.39;81.41
10958;BME280;5531;42.570;23.676;2022-08-21T12:07:11;91490.38;;;22.38;83.15
10958;BME280;5531;42.570;23.676;2022-08-21T12:09:53;91486.00;;;22.47;81.68
10958;BME280;5531;42.570;23.676;2022-08-21T12:12:25;91492.78;;;22.39;81.87
10958;BME280;5531;42.570;23.676;2022-08-21T12:15:12;91485.19;;;22.17;83.65
10958;BME280;5531;42.570;23.676;2022-08-21T12:17:54;91485.06;;;21.98;83.09
10958;BME280;5531;42.570;23.676;2022-08-21T12:20:41;91488.84;;;21.92;84.42
10958;BME280;5531;42.570;23.676;2022-08-21T12:23:26;91489.16;;;21.85;84.47
10958;BME280;5531;42.570;23.676;2022-08-21T12:28:48;91500.50;;;21.67;85.17
10958;BME280;5531;42.570;23.676;2022-08-21T12:31:22;91505.38;;;21.59;85.74
10958;BME280;5531;42.570;23.676;2022-08-21T12:33:56;91502.19;;;21.47;85.05
10958;BME280;5531;42.570;23.676;2022-08-21T12:36:41;91495.84;;;21.43;85.05
10958;BME280;5531;42.570;23.676;2022-08-21T12:39:15;91503.63;;;21.29;85.93
10958;BME280;5531;42.570;23.676;2022-08-21T12:41:49;91502.03;;;21.33;85.52
10958;BME280;5531;42.570;23.676;2022-08-21T12:44:24;91501.47;;;21.31;85.41
10958;BME280;5531;42.570;23.676;2022-08-21T12:46:58;91484.47;;;21.27;86.20
10958;BME280;5531;42.570;23.676;2022-08-21T12:49:33;91497.91;;;21.01;86.87
10958;BME280;5531;42.570;23.676;2022-08-21T12:52:11;91489.41;;;20.94;86.45
10958;BME280;5531;42.570;23.676;2022-08-21T12:54:44;91492.28;;;21.03;86.53
10958;BME280;5531;42.570;23.676;2022-08-21T12:57:20;91496.28;;;21.05;86.65
10958;BME280;5531;42.570;23.676;2022-08-21T12:59:54;91490.66;;;21.07;87.37
10958;BME280;5531;42.570;23.676;2022-08-21T13:02:28;91479.03;;;20.93;87.39
10958;BME280;5531;42.570;23.676;2022-08-21T13:05:03;91487.28;;;20.91;89.69
10958;BME280;5531;42.570;23.676;2022-08-21T13:07:36;91489.16;;;20.85;89.36
10958;BME280;5531;42.570;23.676;2022-08-21T13:10:14;91483.34;;;20.78;90.37
10958;BME280;5531;42.570;23.676;2022-08-21T13:12:46;91483.59;;;20.82;91.46
10958;BME280;5531;42.570;23.676;2022-08-21T13:15:23;91478.56;;;20.75;91.13
10958;BME280;5531;42.570;23.676;2022-08-21T13:17:53;91466.00;;;20.81;92.65
10958;BME280;5531;42.570;23.676;2022-08-21T13:20:30;91457.00;;;20.72;92.02
10958;BME280;5531;42.570;23.676;2022-08-21T13:23:07;91456.72;;;20.68;92.81
10958;BME280;5531;42.570;23.676;2022-08-21T13:25:37;91451.69;;;20.56;94.28
10958;BME280;5531;42.570;23.676;2022-08-21T13:28:08;91459.69;;;20.51;96.55
10958;BME280;5531;42.570;23.676;2022-08-21T13:30:42;91465.81;;;20.46;96.84